Time;durP1;ratioP1;P1;durP2;ratioP2;P2;SDS_P1;SDS_P2;PMS_P1;PMS_P2;Temp;Humidity;BMP_temperature;BMP_pressure;BME280_temperature;BME280_humidity;BME280_pressure;Samples;Min_cycle;Max_cycle;Signal;HPM_P1;HPM_P2
2022/12/12 00:00:38;;;;;;;11.43;2.85;;;21.40;99.90;;;;;;5075170;28;20571;-87
2022/12/12 00:03:10;;;;;;;7.05;2.20;;;21.40;99.90;;;;;;5074716;28;20275;-86
2022/12/12 00:05:42;;;;;;;9.45;2.47;;;21.60;99.90;;;;;;5074446;28;20231;-86
2022/12/12 00:08:13;;;;;;;11.68;2.63;;;21.70;99.90;;;;;;5074505;28;20196;-87
2022/12/12 00:10:44;;;;;;;3.42;1.42;;;21.60;99.90;;;;;;5083073;28;20210;-86
2022/12/12 00:13:16;;;;;;;6.38;1.70;;;21.70;99.90;;;;;;5102093;28;20199;-87
2022/12/12 00:15:48;;;;;;;6.60;1.88;;;21.90;99.90;;;;;;5094860;28;20230;-86
2022/12/12 00:18:20;;;;;;;4.78;1.65;;;22.10;99.90;;;;;;5073912;28;20227;-85
2022/12/12 00:20:54;;;;;;;3.60;1.20;;;22.30;99.90;;;;;;5081837;28;20203;-85
2022/12/12 00:23:26;;;;;;;6.07;1.33;;;22.50;99.90;;;;;;5094816;28;20195;-85
2022/12/12 00:25:59;;;;;;;5.10;1.05;;;22.50;99.90;;;;;;5094440;28;20191;-86
2022/12/12 00:28:35;;;;;;;4.65;1.90;;;22.60;99.90;;;;;;5107059;28;20206;-87
2022/12/12 00:31:06;;;;;;;4.53;1.40;;;22.70;99.90;;;;;;5113571;28;20203;-86
2022/12/12 00:33:49;;;;;;;6.53;1.45;;;22.90;99.90;;;;;;5115905;28;20215;-87
2022/12/12 00:36:21;;;;;;;9.02;1.90;;;23.10;99.90;;;;;;5104422;28;20650;-87
2022/12/12 00:38:53;;;;;;;6.22;1.50;;;23.10;99.90;;;;;;5094935;28;20223;-87
2022/12/12 00:41:24;;;;;;;5.85;1.45;;;23.10;99.90;;;;;;5094587;28;20199;-86
2022/12/12 00:43:55;;;;;;;2.53;1.20;;;23.10;99.90;;;;;;5090416;28;20260;-86
2022/12/12 00:46:27;;;;;;;6.47;1.48;;;23.10;99.90;;;;;;5094871;28;20289;-87
2022/12/12 00:49:02;;;;;;;5.53;1.40;;;23.10;99.90;;;;;;5095364;28;20700;-87
2022/12/12 00:51:33;;;;;;;9.88;2.25;;;23.10;99.90;;;;;;5087553;28;20211;-86
2022/12/12 00:54:04;;;;;;;3.58;1.48;;;23.00;99.90;;;;;;5075472;28;20689;-86
2022/12/12 00:56:38;;;;;;;4.95;1.80;;;22.90;99.90;;;;;;5084181;28;20196;-85
2022/12/12 00:59:09;;;;;;;5.57;1.40;;;22.90;99.90;;;;;;5096959;28;20219;-86
2022/12/12 01:01:40;;;;;;;4.68;1.63;;;22.90;99.90;;;;;;5093507;28;20203;-86
2022/12/12 01:04:13;;;;;;;3.17;1.35;;;22.90;99.90;;;;;;5094604;28;20676;-85
2022/12/12 01:06:44;;;;;;;3.28;1.23;;;23.00;99.90;;;;;;5093949;28;20191;-86
2022/12/12 01:09:14;;;;;;;7.38;1.70;;;23.00;99.90;;;;;;5094540;28;20575;-85
2022/12/12 01:11:50;;;;;;;3.80;1.63;;;23.10;99.90;;;;;;5101457;28;20201;-86
2022/12/12 01:14:20;;;;;;;4.88;1.40;;;23.20;99.90;;;;;;5094204;28;20559;-85
2022/12/12 01:16:51;;;;;;;6.07;1.85;;;23.30;99.90;;;;;;5095343;28;20203;-84
2022/12/12 01:19:24;;;;;;;4.63;1.58;;;23.40;99.90;;;;;;5092156;28;20206;-82
2022/12/12 01:21:55;;;;;;;5.10;1.67;;;23.50;99.90;;;;;;5093226;28;20191;-83
2022/12/12 01:24:25;;;;;;;4.45;1.55;;;23.50;99.90;;;;;;5092807;28;20192;-83
2022/12/12 01:26:56;;;;;;;5.10;1.60;;;23.40;99.90;;;;;;5092710;28;20645;-83
2022/12/12 01:29:27;;;;;;;6.03;1.52;;;23.50;99.90;;;;;;5093075;28;20692;-83
2022/12/12 01:31:58;;;;;;;5.28;1.63;;;23.60;99.90;;;;;;5082939;28;20203;-83
2022/12/12 01:34:30;;;;;;;4.22;1.15;;;23.70;99.90;;;;;;5096299;28;20221;-83
2022/12/12 01:37:01;;;;;;;2.58;1.40;;;23.80;99.90;;;;;;5105615;28;20226;-83
2022/12/12 01:39:32;;;;;;;4.47;1.40;;;23.90;99.90;;;;;;5085384;28;20195;-83
2022/12/12 01:42:04;;;;;;;6.30;1.42;;;24.00;99.90;;;;;;5078353;28;20195;-83
2022/12/12 01:44:45;;;;;;;3.38;1.23;;;24.10;99.90;;;;;;5085131;28;20566;-82
2022/12/12 01:47:18;;;;;;;2.42;1.20;;;24.10;99.90;;;;;;5075231;28;20191;-84
2022/12/12 01:49:55;;;;;;;4.63;1.58;;;24.10;99.90;;;;;;5079848;28;20196;-82
2022/12/12 01:52:29;;;;;;;4.88;1.35;;;24.00;99.90;;;;;;5088803;28;20215;-82
2022/12/12 01:55:04;;;;;;;3.00;1.30;;;24.10;99.90;;;;;;5091860;28;20274;-82
2022/12/12 01:57:38;;;;;;;3.83;1.40;;;24.00;99.90;;;;;;5091049;28;20270;-82
2022/12/12 02:00:11;;;;;;;7.22;1.35;;;24.10;99.90;;;;;;5091628;28;20248;-83
2022/12/12 02:02:45;;;;;;;6.38;1.50;;;24.30;99.90;;;;;;5091458;28;20642;-83
2022/12/12 02:05:23;;;;;;;4.53;0.90;;;24.30;99.90;;;;;;5085444;28;20246;-82
2022/12/12 02:07:55;;;;;;;3.50;1.10;;;24.50;99.90;;;;;;5080131;28;20214;-82
2022/12/12 02:10:26;;;;;;;4.13;1.02;;;24.60;99.90;;;;;;5088287;28;20213;-82
2022/12/12 02:13:04;;;;;;;1.98;0.70;;;24.60;99.90;;;;;;5085215;28;20205;-82
2022/12/12 02:15:54;;;;;;;6.07;1.00;;;24.50;99.90;;;;;;5091149;28;20227;-82
2022/12/12 02:18:37;;;;;;;1.98;0.70;;;24.60;99.90;;;;;;5091011;28;20225;-82
2022/12/12 02:21:17;;;;;;;3.00;0.70;;;24.70;99.90;;;;;;5090522;28;20203;-81
2022/12/12 02:24:29;;;;;;;2.17;0.80;;;25.00;99.90;;;;;;5089946;28;20282;-82
2022/12/12 02:27:37;;;;;;;1.88;0.40;;;25.10;99.90;;;;;;5080659;28;20274;-82
2022/12/12 02:30:26;;;;;;;2.17;0.60;;;25.10;99.90;;;;;;5073239;28;20191;-82
2022/12/12 02:33:16;;;;;;;1.48;0.50;;;25.20;99.90;;;;;;5076086;28;20212;-82
2022/12/12 02:36:01;;;;;;;1.50;0.60;;;25.50;99.90;;;;;;5088750;28;20197;-83
2022/12/12 02:38:36;;;;;;;1.58;0.45;;;25.70;99.90;;;;;;5105793;28;20229;-81
2022/12/12 02:41:15;;;;;;;1.40;0.30;;;26.10;99.90;;;;;;5087474;28;20203;-81
2022/12/12 02:43:55;;;;;;;0.52;0.40;;;26.30;99.90;;;;;;5090480;28;20199;-82
2022/12/12 02:46:31;;;;;;;0.88;0.50;;;26.30;99.90;;;;;;5090573;28;20195;-80
2022/12/12 02:49:07;;;;;;;0.50;0.30;;;26.30;99.90;;;;;;5090314;28;20193;-82
2022/12/12 02:51:40;;;;;;;1.92;0.40;;;26.30;99.90;;;;;;5090855;28;20250;-84
2022/12/12 02:54:17;;;;;;;2.65;0.40;;;26.30;99.90;;;;;;5090312;28;20729;-82
2022/12/12 02:56:56;;;;;;;1.00;0.43;;;26.40;99.90;;;;;;5090761;28;20202;-84
2022/12/12 02:59:35;;;;;;;0.68;0.40;;;26.40;99.90;;;;;;5091009;28;20215;-83
2022/12/12 03:02:28;;;;;;;1.65;0.30;;;26.30;99.90;;;;;;5091318;28;20213;-82
2022/12/12 03:08:31;;;;;;;1.15;0.40;;;26.10;99.90;;;;;;5098587;28;20205;-82
2022/12/12 03:11:07;;;;;;;1.30;0.30;;;26.10;99.90;;;;;;5080685;28;20209;-82
2022/12/12 03:13:48;;;;;;;0.88;0.40;;;26.20;99.90;;;;;;5090111;28;20610;-83
2022/12/12 03:16:27;;;;;;;2.28;0.50;;;26.20;99.90;;;;;;5081952;28;20200;-82
2022/12/12 03:19:08;;;;;;;1.27;0.50;;;26.10;99.90;;;;;;5089023;28;20314;-82
2022/12/12 03:21:48;;;;;;;1.77;0.50;;;26.30;99.90;;;;;;5098874;28;20241;-82
2022/12/12 03:24:27;;;;;;;0.98;0.40;;;26.50;99.90;;;;;;5098111;28;20199;-82
2022/12/12 03:27:01;;;;;;;1.75;0.25;;;26.70;99.90;;;;;;5097767;28;20187;-82
2022/12/12 03:29:37;;;;;;;1.85;0.50;;;27.00;99.90;;;;;;5092856;28;20210;-80
2022/12/12 03:32:13;;;;;;;1.33;0.52;;;27.50;99.90;;;;;;5084062;28;20194;-82
2022/12/12 03:34:50;;;;;;;1.75;0.60;;;27.50;99.90;;;;;;5092499;28;20197;-82
2022/12/12 03:37:26;;;;;;;1.13;0.50;;;27.40;99.90;;;;;;5104736;27;20201;-82
2022/12/12 03:39:59;;;;;;;3.08;0.77;;;27.70;99.90;;;;;;5106992;28;20226;-82
2022/12/12 03:42:38;;;;;;;1.30;0.50;;;27.90;98.60;;;;;;5082606;28;20657;-83
2022/12/12 03:45:13;;;;;;;2.35;0.65;;;28.10;94.80;;;;;;5097585;28;20191;-83
2022/12/12 03:47:52;;;;;;;3.25;0.70;;;28.20;96.00;;;;;;5098204;28;20182;-83
2022/12/12 03:50:24;;;;;;;1.27;0.63;;;28.40;95.00;;;;;;5097392;28;20225;-83
2022/12/12 03:53:01;;;;;;;1.63;0.60;;;28.60;93.90;;;;;;5095260;28;20199;-83
2022/12/12 03:55:40;;;;;;;1.30;0.70;;;28.70;91.30;;;;;;5096703;28;20191;-83
2022/12/12 03:58:18;;;;;;;1.88;0.52;;;28.80;91.30;;;;;;5092882;28;20218;-82
2022/12/12 04:00:53;;;;;;;1.00;0.60;;;28.90;90.40;;;;;;5087539;28;20652;-81
2022/12/12 04:03:28;;;;;;;2.30;0.70;;;29.20;86.70;;;;;;5105603;28;20254;-83
2022/12/12 04:14:57;;;;;;;1.73;0.70;;;27.90;87.20;;;;;;5088636;28;20342;-83
2022/12/12 04:17:38;;;;;;;5.22;0.90;;;27.60;89.50;;;;;;5097529;28;20195;-83
2022/12/12 04:23:20;;;;;;;1.20;0.70;;;27.30;87.70;;;;;;5091689;28;20291;-82
2022/12/12 04:28:58;;;;;;;2.13;0.90;;;27.70;89.70;;;;;;5102865;28;20205;-81
2022/12/12 04:31:32;;;;;;;1.98;0.98;;;27.70;89.00;;;;;;5112554;28;20258;-83
2022/12/12 04:34:10;;;;;;;2.95;0.80;;;27.70;89.60;;;;;;5103905;28;20198;-83
2022/12/12 04:36:42;;;;;;;4.22;0.70;;;27.60;89.20;;;;;;5100021;28;20278;-83
2022/12/12 04:39:17;;;;;;;2.95;0.70;;;27.60;85.70;;;;;;5095312;28;20296;-81
2022/12/12 04:41:53;;;;;;;2.25;0.70;;;27.40;85.30;;;;;;5089668;28;20183;-84
2022/12/12 04:44:25;;;;;;;2.97;0.73;;;27.30;83.00;;;;;;5080916;28;20199;-83
2022/12/12 04:46:58;;;;;;;3.25;0.80;;;27.70;79.30;;;;;;5092106;28;20199;-82
2022/12/12 04:49:30;;;;;;;1.35;0.70;;;28.10;78.70;;;;;;5094496;28;20209;-82
2022/12/12 04:52:05;;;;;;;2.15;0.80;;;28.50;79.40;;;;;;5094784;28;20211;-83
2022/12/12 04:54:43;;;;;;;3.88;0.68;;;28.70;76.20;;;;;;5093102;28;20228;-83
2022/12/12 04:57:21;;;;;;;1.55;0.60;;;28.90;73.50;;;;;;5087950;28;20217;-83
2022/12/12 04:59:51;;;;;;;2.25;0.90;;;29.10;70.40;;;;;;5092729;28;20223;-82
2022/12/12 05:02:31;;;;;;;1.95;0.60;;;29.60;70.10;;;;;;5093363;28;20192;-83
2022/12/12 05:05:05;;;;;;;2.10;0.82;;;29.60;65.60;;;;;;5093342;28;20258;-83
2022/12/12 05:07:38;;;;;;;3.20;0.80;;;29.80;64.90;;;;;;5094136;28;20211;-83
2022/12/12 05:10:12;;;;;;;3.30;0.75;;;29.80;62.50;;;;;;5094356;28;20195;-83
2022/12/12 05:12:46;;;;;;;2.20;0.50;;;30.00;65.20;;;;;;5093419;28;20205;-83
2022/12/12 05:15:20;;;;;;;1.45;0.82;;;29.70;62.80;;;;;;5091374;28;20226;-83
2022/12/12 05:17:53;;;;;;;2.65;0.70;;;30.00;62.60;;;;;;5092345;28;20286;-83
2022/12/12 05:20:24;;;;;;;2.35;0.77;;;30.10;62.90;;;;;;5093006;28;20223;-83
2022/12/12 05:22:56;;;;;;;1.73;0.73;;;29.30;64.20;;;;;;5093672;28;20195;-83
2022/12/12 05:25:27;;;;;;;6.80;0.80;;;28.70;64.90;;;;;;5094158;28;20661;-83
2022/12/12 05:28:01;;;;;;;1.63;0.70;;;28.00;66.60;;;;;;5085855;28;20225;-83
2022/12/12 05:30:32;;;;;;;2.08;0.90;;;27.40;68.70;;;;;;5092740;28;20653;-82
2022/12/12 05:33:03;;;;;;;3.35;0.90;;;27.10;70.60;;;;;;5082380;28;20290;-83
2022/12/12 05:35:34;;;;;;;4.82;0.80;;;27.20;71.10;;;;;;5092372;28;20194;-83
2022/12/12 05:38:05;;;;;;;2.65;0.80;;;27.50;72.60;;;;;;5092798;28;20248;-83
2022/12/12 05:40:36;;;;;;;1.50;0.60;;;28.00;71.10;;;;;;5096975;28;20199;-83
2022/12/12 05:43:09;;;;;;;1.48;0.70;;;28.40;67.90;;;;;;5110722;28;20254;-83
2022/12/12 05:45:39;;;;;;;3.78;0.95;;;29.20;67.40;;;;;;5094984;28;20592;-83
2022/12/12 05:48:10;;;;;;;0.82;0.50;;;29.60;56.30;;;;;;5093438;28;20270;-83
2022/12/12 05:50:41;;;;;;;2.08;0.80;;;29.70;55.70;;;;;;5091187;28;20215;-84
2022/12/12 05:53:12;;;;;;;1.55;0.50;;;30.20;55.80;;;;;;5086177;28;20218;-83
2022/12/12 05:55:43;;;;;;;1.45;0.43;;;30.40;53.90;;;;;;5087630;28;20195;-83
2022/12/12 05:58:16;;;;;;;1.85;0.50;;;29.80;52.80;;;;;;5086057;28;20192;-82
2022/12/12 06:00:49;;;;;;;3.38;0.70;;;28.60;52.60;;;;;;5089749;28;20206;-82
2022/12/12 06:03:20;;;;;;;4.65;0.70;;;28.20;54.10;;;;;;5091218;28;20244;-81
2022/12/12 06:05:51;;;;;;;1.20;0.60;;;27.50;55.70;;;;;;5090826;28;20278;-82
2022/12/12 06:08:21;;;;;;;2.50;0.73;;;27.20;56.50;;;;;;5091432;28;20657;-82
2022/12/12 06:10:52;;;;;;;3.80;0.50;;;27.00;55.40;;;;;;5091345;28;20191;-82
2022/12/12 06:13:25;;;;;;;1.45;0.75;;;27.40;54.10;;;;;;5091580;28;20231;-82
2022/12/12 06:15:56;;;;;;;2.75;0.73;;;28.10;51.90;;;;;;5091687;28;20566;-83
2022/12/12 06:18:28;;;;;;;2.78;0.70;;;28.40;52.50;;;;;;5084984;28;20205;-83
2022/12/12 06:21:06;;;;;;;1.95;0.70;;;28.30;52.90;;;;;;5095654;28;20352;-82
2022/12/12 06:23:39;;;;;;;2.40;0.80;;;28.10;54.00;;;;;;5105267;28;20274;-82
2022/12/12 06:26:11;;;;;;;3.08;0.65;;;27.90;53.80;;;;;;5091195;28;20195;-82
2022/12/12 06:28:43;;;;;;;1.65;0.60;;;27.30;54.80;;;;;;5091432;28;20191;-82
2022/12/12 06:31:16;;;;;;;1.40;0.80;;;26.90;56.40;;;;;;5091046;28;20658;-82
2022/12/12 06:33:48;;;;;;;2.70;0.60;;;26.70;56.10;;;;;;5090922;28;20203;-83
2022/12/12 06:36:23;;;;;;;2.05;0.60;;;26.60;55.90;;;;;;5087844;28;20274;-83
2022/12/12 06:38:55;;;;;;;1.70;0.60;;;27.60;54.30;;;;;;5088105;28;20585;-84
2022/12/12 06:41:28;;;;;;;1.85;0.60;;;28.20;52.70;;;;;;5090895;28;20624;-82
2022/12/12 06:44:01;;;;;;;0.70;0.40;;;28.50;50.80;;;;;;5098448;28;20191;-77
2022/12/12 06:46:32;;;;;;;1.08;0.70;;;28.80;48.90;;;;;;5099092;28;20257;-82
2022/12/12 06:49:08;;;;;;;2.78;0.55;;;28.60;46.70;;;;;;5087456;28;20304;-82
2022/12/12 06:51:43;;;;;;;1.88;0.70;;;28.20;44.90;;;;;;5090929;28;20263;-82
2022/12/12 06:54:14;;;;;;;3.20;0.88;;;27.30;43.40;;;;;;5089282;28;20201;-82
2022/12/12 06:56:45;;;;;;;2.92;0.60;;;27.50;42.70;;;;;;5089592;28;20593;-84
2022/12/12 06:59:18;;;;;;;3.40;0.65;;;28.10;40.50;;;;;;5081227;28;20218;-82
2022/12/12 07:01:50;;;;;;;1.45;0.50;;;28.70;39.60;;;;;;5090027;28;20230;-83
2022/12/12 07:04:20;;;;;;;3.72;0.60;;;28.80;40.80;;;;;;5088032;28;20199;-83
2022/12/12 07:06:51;;;;;;;3.00;0.40;;;29.20;41.70;;;;;;5088144;28;20541;-82
2022/12/12 07:09:22;;;;;;;1.30;0.90;;;29.60;39.60;;;;;;5090119;28;20294;-82
2022/12/12 07:11:53;;;;;;;1.38;0.50;;;29.60;39.90;;;;;;5089411;28;20614;-82
2022/12/12 07:14:25;;;;;;;2.05;0.52;;;29.50;40.10;;;;;;5089927;28;20306;-81
2022/12/12 07:16:56;;;;;;;0.88;0.70;;;29.30;39.60;;;;;;5090161;28;20286;-81
2022/12/12 07:19:28;;;;;;;2.22;0.40;;;29.80;39.70;;;;;;5090476;28;20218;-81
2022/12/12 07:21:59;;;;;;;1.73;0.50;;;29.70;37.70;;;;;;5089849;28;20319;-82
2022/12/12 07:24:31;;;;;;;1.77;0.55;;;29.20;37.40;;;;;;5089143;28;20199;-84
2022/12/12 07:27:02;;;;;;;4.05;0.60;;;28.90;37.70;;;;;;5082684;28;20742;-84
2022/12/12 07:29:35;;;;;;;6.07;2.03;;;29.10;37.80;;;;;;5073100;28;20195;-83
2022/12/12 07:32:07;;;;;;;2.88;0.80;;;29.40;37.20;;;;;;5083714;28;20237;-84
2022/12/12 07:34:37;;;;;;;2.63;1.13;;;29.10;34.90;;;;;;5090939;28;20227;-83
2022/12/12 07:37:09;;;;;;;3.63;1.42;;;28.40;36.00;;;;;;5089352;28;20741;-83
2022/12/12 07:39:40;;;;;;;2.17;0.80;;;27.90;36.90;;;;;;5094028;28;20254;-84
2022/12/12 07:42:12;;;;;;;3.03;0.70;;;27.60;37.00;;;;;;5092026;28;20677;-85
2022/12/12 07:44:45;;;;;;;4.15;0.50;;;27.60;37.00;;;;;;5077740;28;20220;-84
2022/12/12 07:47:15;;;;;;;5.40;2.03;;;27.80;36.30;;;;;;5076252;28;20214;-85
2022/12/12 07:49:46;;;;;;;3.42;0.60;;;27.80;36.50;;;;;;5102960;28;20282;-83
2022/12/12 07:52:18;;;;;;;1.88;0.57;;;27.80;36.90;;;;;;5083682;28;20218;-83
2022/12/12 07:54:49;;;;;;;1.80;0.30;;;27.90;36.50;;;;;;5090627;28;20192;-83
2022/12/12 07:57:21;;;;;;;5.57;1.88;;;27.90;36.80;;;;;;5092458;28;20195;-83
2022/12/12 07:59:54;;;;;;;2.85;0.90;;;27.70;36.80;;;;;;5074535;28;20706;-84
2022/12/12 08:02:25;;;;;;;0.60;0.47;;;27.30;37.50;;;;;;5088245;28;20282;-84
2022/12/12 08:04:56;;;;;;;1.92;0.85;;;27.10;37.60;;;;;;5090282;28;20199;-83
2022/12/12 08:07:27;;;;;;;3.42;0.85;;;26.70;38.20;;;;;;5090984;28;20676;-82
2022/12/12 08:09:59;;;;;;;1.55;0.47;;;26.30;37.00;;;;;;5090735;28;20196;-82
2022/12/12 08:12:32;;;;;;;0.85;0.60;;;25.60;37.30;;;;;;5091415;28;20204;-82
2022/12/12 08:15:05;;;;;;;2.30;0.80;;;25.20;37.90;;;;;;5090312;28;20227;-82
2022/12/12 08:17:37;;;;;;;3.47;1.10;;;24.90;38.60;;;;;;5083419;28;20673;-82
2022/12/12 08:20:09;;;;;;;1.50;0.70;;;24.90;38.90;;;;;;5093784;28;20584;-82
2022/12/12 08:22:40;;;;;;;2.85;1.10;;;24.80;38.70;;;;;;5094590;28;20196;-83
2022/12/12 08:25:12;;;;;;;2.95;0.47;;;24.80;39.40;;;;;;5091837;28;20191;-82
2022/12/12 08:27:43;;;;;;;3.50;0.90;;;24.70;39.20;;;;;;5091619;28;20215;-84
2022/12/12 08:30:17;;;;;;;4.03;0.80;;;24.50;39.30;;;;;;5076493;28;20199;-83
2022/12/12 08:32:48;;;;;;;4.43;0.88;;;24.50;39.20;;;;;;5096438;28;20195;-82
2022/12/12 08:35:19;;;;;;;2.55;0.50;;;24.30;39.50;;;;;;5088615;28;20198;-82
2022/12/12 08:37:51;;;;;;;2.50;0.40;;;24.30;39.90;;;;;;5091174;28;20571;-81
2022/12/12 08:40:22;;;;;;;1.77;0.63;;;24.40;40.90;;;;;;5086568;28;20241;-81
2022/12/12 08:42:53;;;;;;;3.10;0.85;;;24.40;40.50;;;;;;5088634;28;20492;-82
2022/12/12 08:45:26;;;;;;;3.72;1.20;;;24.20;40.10;;;;;;5095404;28;20683;-79
2022/12/12 08:47:57;;;;;;;3.05;0.70;;;24.00;40.40;;;;;;5103408;28;20282;-81
2022/12/12 08:50:28;;;;;;;2.42;0.55;;;23.90;41.40;;;;;;5091742;28;20542;-80
2022/12/12 08:52:59;;;;;;;1.65;0.55;;;23.80;40.80;;;;;;5095211;28;20278;-79
2022/12/12 08:55:31;;;;;;;2.70;0.60;;;23.90;41.00;;;;;;5091762;28;20278;-79
2022/12/12 08:58:02;;;;;;;5.18;0.70;;;23.90;40.80;;;;;;5096105;28;20213;-81
2022/12/12 09:00:35;;;;;;;1.42;0.60;;;23.90;41.40;;;;;;5095349;28;20284;-81
2022/12/12 09:03:06;;;;;;;3.78;1.20;;;23.80;41.60;;;;;;5095463;28;20195;-81
2022/12/12 09:05:37;;;;;;;4.90;0.80;;;23.90;42.20;;;;;;5096476;28;20199;-83
2022/12/12 09:08:08;;;;;;;3.88;0.68;;;23.70;42.30;;;;;;5094268;28;20195;-81
2022/12/12 09:10:39;;;;;;;5.35;0.98;;;23.70;42.30;;;;;;5096363;28;20672;-83
2022/12/12 09:13:10;;;;;;;3.72;0.75;;;23.70;42.30;;;;;;5093687;28;20201;-83
2022/12/12 09:15:43;;;;;;;1.50;0.68;;;23.60;42.80;;;;;;5091185;28;20310;-83
2022/12/12 09:18:14;;;;;;;3.13;0.65;;;23.50;43.90;;;;;;5092598;28;20213;-82
2022/12/12 09:20:49;;;;;;;3.38;0.77;;;23.50;43.80;;;;;;5095442;28;20225;-83
2022/12/12 09:23:24;;;;;;;1.13;0.57;;;23.40;43.40;;;;;;5095743;28;20202;-82
2022/12/12 09:25:55;;;;;;;4.60;0.60;;;23.20;44.10;;;;;;5078241;28;20195;-83
2022/12/12 09:28:27;;;;;;;3.55;0.60;;;23.10;44.40;;;;;;5095067;28;20215;-82
2022/12/12 09:31:00;;;;;;;5.70;2.25;;;23.20;44.90;;;;;;5097233;28;20205;-80
2022/12/12 09:33:31;;;;;;;1.20;0.30;;;23.00;43.60;;;;;;5089869;28;20700;-80
2022/12/12 09:36:04;;;;;;;2.58;0.50;;;23.00;43.10;;;;;;5095177;28;20260;-81
2022/12/12 09:38:36;;;;;;;2.15;0.40;;;22.90;42.60;;;;;;5094390;28;20654;-82
2022/12/12 09:41:13;;;;;;;0.95;0.40;;;22.80;43.10;;;;;;5093785;28;20231;-82
2022/12/12 09:43:50;;;;;;;3.30;0.70;;;22.70;43.60;;;;;;5089909;28;20210;-81
2022/12/12 09:46:31;;;;;;;1.75;0.45;;;22.80;44.50;;;;;;5094282;28;20665;-81
2022/12/12 09:49:09;;;;;;;1.10;0.40;;;22.80;43.40;;;;;;5092302;28;20230;-82
2022/12/12 09:51:40;;;;;;;3.72;0.80;;;22.80;44.20;;;;;;5093877;28;20219;-81
2022/12/12 09:54:19;;;;;;;1.85;0.73;;;22.70;44.80;;;;;;5092571;28;20669;-80
2022/12/12 09:57:02;;;;;;;0.70;0.43;;;22.70;45.00;;;;;;5085109;28;20192;-82
2022/12/12 09:59:41;;;;;;;3.42;0.70;;;22.70;45.70;;;;;;5072136;28;20554;-82
2022/12/12 10:02:39;;;;;;;1.15;0.40;;;22.60;44.70;;;;;;5078806;28;20249;-82
2022/12/12 10:05:22;;;;;;;3.58;0.50;;;22.60;45.40;;;;;;5074763;28;20204;-83
2022/12/12 10:08:02;;;;;;;1.02;0.35;;;22.60;44.90;;;;;;5088260;28;20211;-81
2022/12/12 10:10:38;;;;;;;4.78;0.50;;;22.50;45.30;;;;;;5088866;28;20242;-81
2022/12/12 10:13:16;;;;;;;1.90;0.45;;;22.50;45.70;;;;;;5086126;28;20194;-81
2022/12/12 10:15:49;;;;;;;0.65;0.40;;;22.30;45.60;;;;;;5091400;28;20258;-80
2022/12/12 10:18:29;;;;;;;2.88;0.30;;;22.30;46.00;;;;;;5086673;28;20295;-81
2022/12/12 10:21:02;;;;;;;6.22;0.50;;;22.30;46.10;;;;;;5086437;28;20226;-81
2022/12/12 10:23:39;;;;;;;3.13;0.60;;;22.30;45.80;;;;;;5091119;28;20684;-80
2022/12/12 10:26:15;;;;;;;1.33;0.40;;;22.20;46.10;;;;;;5091320;28;20198;-81
2022/12/12 10:28:47;;;;;;;1.48;0.35;;;22.20;46.00;;;;;;5070464;28;20203;-81
2022/12/12 10:31:29;;;;;;;1.98;0.65;;;22.10;46.60;;;;;;5087274;28;20195;-81
2022/12/12 10:34:29;;;;;;;1.88;0.73;;;22.10;46.80;;;;;;5071034;28;20623;-81
2022/12/12 10:37:09;;;;;;;1.00;0.40;;;22.10;46.90;;;;;;5089705;28;20205;-82
2022/12/12 10:39:50;;;;;;;2.88;0.50;;;22.00;47.10;;;;;;5081179;28;20649;-81
2022/12/12 10:42:28;;;;;;;2.15;0.38;;;22.00;46.50;;;;;;5090410;28;20241;-81
2022/12/12 10:45:19;;;;;;;1.77;0.30;;;22.00;46.40;;;;;;5081654;28;20289;-81
2022/12/12 10:47:51;;;;;;;0.85;0.30;;;21.90;47.00;;;;;;5081205;28;20605;-80
2022/12/12 10:50:33;;;;;;;1.40;0.40;;;21.90;46.80;;;;;;5084274;28;20286;-81
2022/12/12 10:53:09;;;;;;;1.52;0.40;;;21.90;47.40;;;;;;5091383;28;20211;-81
2022/12/12 10:55:48;;;;;;;1.13;0.40;;;21.90;47.30;;;;;;5087674;28;20230;-82
2022/12/12 10:58:19;;;;;;;1.13;0.40;;;21.90;47.90;;;;;;5070738;28;20282;-81
2022/12/12 11:00:51;;;;;;;1.27;0.28;;;21.80;48.80;;;;;;5070380;28;20220;-82
2022/12/12 11:03:29;;;;;;;2.28;0.40;;;21.70;49.30;;;;;;5070585;28;20222;-82
2022/12/12 11:06:08;;;;;;;1.42;0.63;;;21.70;48.70;;;;;;5070786;28;20669;-81
2022/12/12 11:08:40;;;;;;;1.98;0.30;;;21.70;48.60;;;;;;5085501;28;20217;-80
2022/12/12 11:11:20;;;;;;;2.88;0.30;;;21.60;48.70;;;;;;5091009;28;20205;-81
2022/12/12 11:13:54;;;;;;;1.38;0.43;;;21.60;48.30;;;;;;5085345;28;20191;-81
2022/12/12 11:16:26;;;;;;;1.48;0.45;;;21.50;48.20;;;;;;5090372;28;20298;-81
2022/12/12 11:19:03;;;;;;;1.33;0.50;;;21.40;47.90;;;;;;5090349;28;20240;-81
2022/12/12 11:21:39;;;;;;;2.13;0.40;;;21.50;48.00;;;;;;5088902;28;20222;-81
2022/12/12 11:24:15;;;;;;;3.42;0.32;;;21.40;47.90;;;;;;5087038;28;20208;-80
2022/12/12 11:26:49;;;;;;;1.13;0.40;;;21.50;48.60;;;;;;5089433;28;20205;-81
2022/12/12 11:29:36;;;;;;;0.57;0.20;;;21.50;48.60;;;;;;5101882;28;20202;-81
2022/12/12 11:32:12;;;;;;;3.20;0.47;;;21.50;48.70;;;;;;5085461;28;20246;-80
2022/12/12 11:34:47;;;;;;;1.13;0.32;;;21.50;48.40;;;;;;5075822;28;20281;-80
2022/12/12 11:37:23;;;;;;;1.02;0.40;;;21.40;47.90;;;;;;5090608;28;20204;-80
2022/12/12 11:39:54;;;;;;;2.00;0.30;;;21.30;48.70;;;;;;5091821;28;20206;-81
2022/12/12 11:42:36;;;;;;;2.78;0.30;;;21.30;47.90;;;;;;5098130;28;20223;-80
2022/12/12 11:45:23;;;;;;;0.70;0.30;;;21.20;47.50;;;;;;5097588;28;20195;-80
2022/12/12 11:47:54;;;;;;;0.85;0.30;;;21.20;46.80;;;;;;5097089;28;20203;-81
2022/12/12 11:50:26;;;;;;;2.55;0.30;;;21.20;47.50;;;;;;5097029;28;20236;-80
2022/12/12 11:53:01;;;;;;;1.10;0.25;;;21.20;47.50;;;;;;5098646;28;20394;-82
2022/12/12 11:55:46;;;;;;;1.35;0.20;;;21.10;47.70;;;;;;5096387;28;20563;-80
2022/12/12 11:58:22;;;;;;;2.35;0.43;;;21.00;47.90;;;;;;5098293;28;20206;-80
2022/12/12 12:01:03;;;;;;;1.83;0.30;;;21.00;47.10;;;;;;5097111;28;20211;-79
2022/12/12 12:04:04;;;;;;;1.40;0.30;;;21.00;47.80;;;;;;5096087;28;20286;-81
2022/12/12 12:06:49;;;;;;;1.45;0.20;;;21.10;47.60;;;;;;5078469;28;20260;-81
2022/12/12 12:09:34;;;;;;;3.05;0.30;;;21.00;47.60;;;;;;5093698;28;20222;-80
2022/12/12 12:12:12;;;;;;;0.73;0.20;;;21.00;47.80;;;;;;5096393;28;20199;-81
2022/12/12 12:14:57;;;;;;;1.23;0.22;;;21.00;48.30;;;;;;5097090;28;20265;-80
2022/12/12 12:17:40;;;;;;;0.82;0.20;;;21.10;48.70;;;;;;5097074;28;20203;-81
2022/12/12 12:20:22;;;;;;;5.18;0.40;;;21.10;48.00;;;;;;5097157;28;20191;-81
2022/12/12 12:23:01;;;;;;;2.83;0.40;;;21.10;48.20;;;;;;5096858;28;20207;-81
2022/12/12 12:25:44;;;;;;;0.95;0.20;;;21.10;47.90;;;;;;5093397;28;20290;-80
2022/12/12 12:28:51;;;;;;;1.02;0.20;;;21.10;48.10;;;;;;5095902;28;20198;-80
2022/12/12 12:31:30;;;;;;;0.30;0.20;;;21.00;49.00;;;;;;5071576;28;20202;-80
2022/12/12 12:34:13;;;;;;;4.13;0.47;;;21.10;48.70;;;;;;5075911;28;20199;-81
2022/12/12 12:36:54;;;;;;;3.10;0.30;;;21.00;48.60;;;;;;5094733;28;20202;-79
2022/12/12 12:39:43;;;;;;;0.80;0.30;;;21.00;48.80;;;;;;5095288;28;20286;-80
2022/12/12 12:42:32;;;;;;;1.05;0.20;;;21.00;48.50;;;;;;5089799;28;20223;-81
2022/12/12 12:45:08;;;;;;;1.30;0.40;;;21.00;48.60;;;;;;5093648;28;20203;-80
2022/12/12 12:47:48;;;;;;;3.90;0.30;;;21.00;48.60;;;;;;5095231;28;20202;-81
2022/12/12 12:50:23;;;;;;;5.47;0.40;;;20.90;48.60;;;;;;5102096;28;20217;-80
2022/12/12 12:52:58;;;;;;;3.45;0.30;;;20.90;49.20;;;;;;5103910;28;20195;-79
2022/12/12 12:55:36;;;;;;;4.20;0.30;;;20.90;49.00;;;;;;5104397;28;20190;-80
2022/12/12 12:58:17;;;;;;;2.05;0.40;;;20.90;49.10;;;;;;5094232;28;20207;-81
2022/12/12 13:01:01;;;;;;;4.15;0.40;;;20.90;48.90;;;;;;5087722;28;20226;-81
2022/12/12 13:03:39;;;;;;;1.75;0.57;;;20.80;49.10;;;;;;5090900;28;20202;-79
2022/12/12 13:06:20;;;;;;;1.95;0.30;;;20.70;49.10;;;;;;5089581;28;20195;-79
2022/12/12 13:08:58;;;;;;;1.90;0.30;;;20.70;49.10;;;;;;5089154;28;20676;-79
2022/12/12 13:11:34;;;;;;;1.63;0.43;;;20.70;49.20;;;;;;5080546;28;20202;-80
2022/12/12 13:14:16;;;;;;;1.90;0.50;;;20.70;50.00;;;;;;5088861;28;20596;-80
2022/12/12 13:16:48;;;;;;;4.18;0.45;;;20.60;49.80;;;;;;5093052;28;20195;-80
2022/12/12 13:19:30;;;;;;;2.50;0.40;;;20.60;49.90;;;;;;5093055;28;20187;-80
2022/12/12 13:22:06;;;;;;;2.85;0.40;;;20.60;49.90;;;;;;5084534;28;20633;-80
2022/12/12 13:24:45;;;;;;;1.48;0.22;;;20.50;49.70;;;;;;5094229;28;20286;-81
2022/12/12 13:27:22;;;;;;;1.88;0.30;;;20.50;49.80;;;;;;5093380;28;20264;-81
2022/12/12 13:29:58;;;;;;;2.72;0.43;;;20.50;50.00;;;;;;5092131;28;20199;-80
2022/12/12 13:32:52;;;;;;;0.93;0.40;;;20.50;49.80;;;;;;5094567;28;20205;-80
2022/12/12 13:35:28;;;;;;;3.42;0.50;;;20.50;50.10;;;;;;5096174;28;20195;-81
2022/12/12 13:38:00;;;;;;;0.95;0.30;;;20.50;50.20;;;;;;5095285;28;20278;-80
2022/12/12 13:40:33;;;;;;;2.42;0.38;;;20.50;50.20;;;;;;5101761;28;20777;-80
2022/12/12 13:43:05;;;;;;;3.85;0.50;;;20.50;50.80;;;;;;5089584;28;20564;-78
2022/12/12 13:45:44;;;;;;;1.35;0.40;;;20.40;50.50;;;;;;5094844;28;20198;-78
2022/12/12 13:48:36;;;;;;;1.75;0.38;;;20.40;50.70;;;;;;5078000;28;20275;-79